sensor_id;sensor_type;location;lat;lon;timestamp;temperature;humidity
20102;DHT22;10210;52.284;9.892;2022-09-09T00:02:05;18.50;99.90
20102;DHT22;10210;52.284;9.892;2022-09-09T00:04:38;18.50;99.90
20102;DHT22;10210;52.284;9.892;2022-09-09T00:07:18;18.50;99.90
20102;DHT22;10210;52.284;9.892;2022-09-09T00:13:22;18.50;99.90
20102;DHT22;10210;52.284;9.892;2022-09-09T00:16:21;18.50;99.90
20102;DHT22;10210;52.284;9.892;2022-09-09T00:22:17;18.40;99.90
20102;DHT22;10210;52.284;9.892;2022-09-09T00:25:12;18.50;99.90
20102;DHT22;10210;52.284;9.892;2022-09-09T00:27:48;18.40;99.90
20102;DHT22;10210;52.284;9.892;2022-09-09T00:30:21;18.40;99.90
20102;DHT22;10210;52.284;9.892;2022-09-09T00:32:55;18.40;99.90
20102;DHT22;10210;52.284;9.892;2022-09-09T00:35:38;18.40;99.90
20102;DHT22;10210;52.284;9.892;2022-09-09T00:44:03;18.40;99.90
20102;DHT22;10210;52.284;9.892;2022-09-09T00:47:17;18.40;99.90
20102;DHT22;10210;52.284;9.892;2022-09-09T00:49:56;18.40;99.90
20102;DHT22;10210;52.284;9.892;2022-09-09T00:55:54;18.30;99.90
20102;DHT22;10210;52.284;9.892;2022-09-09T00:58:38;18.30;99.90
20102;DHT22;10210;52.284;9.892;2022-09-09T01:01:08;18.30;99.90
20102;DHT22;10210;52.284;9.892;2022-09-09T01:03:53;18.30;99.90
20102;DHT22;10210;52.284;9.892;2022-09-09T01:09:21;18.30;99.90
20102;DHT22;10210;52.284;9.892;2022-09-09T01:14:43;18.20;99.90
20102;DHT22;10210;52.284;9.892;2022-09-09T01:17:20;18.20;99.90
20102;DHT22;10210;52.284;9.892;2022-09-09T01:20:08;18.20;99.90
20102;DHT22;10210;52.284;9.892;2022-09-09T01:23:12;18.10;99.90
20102;DHT22;10210;52.284;9.892;2022-09-09T01:26:08;18.10;99.90
20102;DHT22;10210;52.284;9.892;2022-09-09T01:28:51;18.10;99.90
20102;DHT22;10210;52.284;9.892;2022-09-09T01:31:37;18.10;99.90
20102;DHT22;10210;52.284;9.892;2022-09-09T01:34:14;18.10;99.90
20102;DHT22;10210;52.284;9.892;2022-09-09T01:36:53;18.00;99.90
20102;DHT22;10210;52.284;9.892;2022-09-09T01:39:26;18.00;99.90
20102;DHT22;10210;52.284;9.892;2022-09-09T01:41:53;18.00;99.90
20102;DHT22;10210;52.284;9.892;2022-09-09T01:44:21;18.00;99.90
20102;DHT22;10210;52.284;9.892;2022-09-09T01:46:48;18.00;99.90
20102;DHT22;10210;52.284;9.892;2022-09-09T01:49:14;18.00;99.90
20102;DHT22;10210;52.284;9.892;2022-09-09T01:51:42;18.00;99.90
20102;DHT22;10210;52.284;9.892;2022-09-09T01:54:10;18.00;99.90
20102;DHT22;10210;52.284;9.892;2022-09-09T01:59:54;18.00;99.90
20102;DHT22;10210;52.284;9.892;2022-09-09T02:02:30;18.00;99.90
20102;DHT22;10210;52.284;9.892;2022-09-09T02:11:15;18.00;99.90
20102;DHT22;10210;52.284;9.892;2022-09-09T02:13:45;18.00;99.90
20102;DHT22;10210;52.284;9.892;2022-09-09T02:19:21;17.90;99.90
20102;DHT22;10210;52.284;9.892;2022-09-09T02:21:53;18.00;99.90
20102;DHT22;10210;52.284;9.892;2022-09-09T02:24:22;18.00;99.90
20102;DHT22;10210;52.284;9.892;2022-09-09T02:26:51;18.00;99.90
20102;DHT22;10210;52.284;9.892;2022-09-09T02:29:36;17.90;99.90
20102;DHT22;10210;52.284;9.892;2022-09-09T02:32:10;17.90;99.90
20102;DHT22;10210;52.284;9.892;2022-09-09T02:35:07;17.90;99.90
20102;DHT22;10210;52.284;9.892;2022-09-09T02:37:38;18.00;99.90
20102;DHT22;10210;52.284;9.892;2022-09-09T02:40:07;17.90;99.90
20102;DHT22;10210;52.284;9.892;2022-09-09T02:42:40;17.90;99.90
20102;DHT22;10210;52.284;9.892;2022-09-09T02:45:11;17.90;99.90
20102;DHT22;10210;52.284;9.892;2022-09-09T02:48:03;18.00;99.90
20102;DHT22;10210;52.284;9.892;2022-09-09T02:50:42;18.00;99.90
20102;DHT22;10210;52.284;9.892;2022-09-09T02:53:30;18.00;99.90
20102;DHT22;10210;52.284;9.892;2022-09-09T02:56:19;18.00;99.90
20102;DHT22;10210;52.284;9.892;2022-09-09T02:58:49;18.00;99.90
20102;DHT22;10210;52.284;9.892;2022-09-09T03:01:17;18.00;99.90
20102;DHT22;10210;52.284;9.892;2022-09-09T03:03:43;18.00;99.90
20102;DHT22;10210;52.284;9.892;2022-09-09T03:06:10;18.00;99.90
20102;DHT22;10210;52.284;9.892;2022-09-09T03:08:37;18.00;99.90
20102;DHT22;10210;52.284;9.892;2022-09-09T03:11:03;18.00;99.90
20102;DHT22;10210;52.284;9.892;2022-09-09T03:13:29;18.00;99.90
20102;DHT22;10210;52.284;9.892;2022-09-09T03:15:55;18.00;99.90
20102;DHT22;10210;52.284;9.892;2022-09-09T03:18:21;18.00;99.90
20102;DHT22;10210;52.284;9.892;2022-09-09T03:20:47;18.00;99.90
20102;DHT22;10210;52.284;9.892;2022-09-09T03:23:16;17.90;99.90
20102;DHT22;10210;52.284;9.892;2022-09-09T03:25:49;17.90;99.90
20102;DHT22;10210;52.284;9.892;2022-09-09T03:28:15;17.90;99.90
20102;DHT22;10210;52.284;9.892;2022-09-09T03:30:41;18.00;99.90
20102;DHT22;10210;52.284;9.892;2022-09-09T03:33:07;17.90;99.90
20102;DHT22;10210;52.284;9.892;2022-09-09T03:35:32;17.90;99.90
20102;DHT22;10210;52.284;9.892;2022-09-09T03:37:58;18.00;99.90
20102;DHT22;10210;52.284;9.892;2022-09-09T03:40:26;17.90;99.90
20102;DHT22;10210;52.284;9.892;2022-09-09T03:42:51;18.00;99.90
20102;DHT22;10210;52.284;9.892;2022-09-09T03:45:17;18.00;99.90
20102;DHT22;10210;52.284;9.892;2022-09-09T03:47:43;18.00;99.90
20102;DHT22;10210;52.284;9.892;2022-09-09T03:50:09;18.10;99.90
20102;DHT22;10210;52.284;9.892;2022-09-09T03:52:40;18.10;99.90
20102;DHT22;10210;52.284;9.892;2022-09-09T03:55:07;18.10;99.90
20102;DHT22;10210;52.284;9.892;2022-09-09T03:57:34;18.10;99.90
20102;DHT22;10210;52.284;9.892;2022-09-09T04:00:05;18.10;99.90
20102;DHT22;10210;52.284;9.892;2022-09-09T04:02:33;18.20;99.90
20102;DHT22;10210;52.284;9.892;2022-09-09T04:04:58;18.20;99.90
20102;DHT22;10210;52.284;9.892;2022-09-09T04:07:25;18.20;99.90
20102;DHT22;10210;52.284;9.892;2022-09-09T04:09:52;18.20;99.90
20102;DHT22;10210;52.284;9.892;2022-09-09T04:12:19;18.20;99.90
20102;DHT22;10210;52.284;9.892;2022-09-09T04:14:46;18.20;99.90
20102;DHT22;10210;52.284;9.892;2022-09-09T04:17:11;18.20;99.90
20102;DHT22;10210;52.284;9.892;2022-09-09T04:19:37;18.30;99.90
20102;DHT22;10210;52.284;9.892;2022-09-09T04:22:03;18.20;99.90
20102;DHT22;10210;52.284;9.892;2022-09-09T04:24:29;18.20;99.90
20102;DHT22;10210;52.284;9.892;2022-09-09T04:26:55;18.30;99.90
20102;DHT22;10210;52.284;9.892;2022-09-09T04:29:20;18.20;99.90
20102;DHT22;10210;52.284;9.892;2022-09-09T04:31:46;18.30;99.90
20102;DHT22;10210;52.284;9.892;2022-09-09T04:34:12;18.30;99.90
20102;DHT22;10210;52.284;9.892;2022-09-09T04:36:37;18.30;99.90
20102;DHT22;10210;52.284;9.892;2022-09-09T04:39:06;18.30;99.90
20102;DHT22;10210;52.284;9.892;2022-09-09T04:41:32;18.30;99.90
20102;DHT22;10210;52.284;9.892;2022-09-09T04:43:58;18.30;99.90
20102;DHT22;10210;52.284;9.892;2022-09-09T04:46:25;18.30;99.90
20102;DHT22;10210;52.284;9.892;2022-09-09T04:48:50;18.30;99.90
20102;DHT22;10210;52.284;9.892;2022-09-09T04:51:17;18.40;99.90
20102;DHT22;10210;52.284;9.892;2022-09-09T04:53:43;18.30;99.90
20102;DHT22;10210;52.284;9.892;2022-09-09T04:56:12;18.40;99.90
20102;DHT22;10210;52.284;9.892;2022-09-09T04:58:40;18.40;99.90
20102;DHT22;10210;52.284;9.892;2022-09-09T05:01:13;18.40;99.90
20102;DHT22;10210;52.284;9.892;2022-09-09T05:03:41;18.40;99.90
20102;DHT22;10210;52.284;9.892;2022-09-09T05:06:09;18.40;99.90
20102;DHT22;10210;52.284;9.892;2022-09-09T05:08:41;18.40;99.90
20102;DHT22;10210;52.284;9.892;2022-09-09T05:11:19;18.50;99.90
20102;DHT22;10210;52.284;9.892;2022-09-09T05:13:48;18.50;99.90
20102;DHT22;10210;52.284;9.892;2022-09-09T05:16:16;18.50;99.90
20102;DHT22;10210;52.284;9.892;2022-09-09T05:18:42;18.50;99.90
20102;DHT22;10210;52.284;9.892;2022-09-09T05:21:10;18.50;99.90
20102;DHT22;10210;52.284;9.892;2022-09-09T05:23:36;18.50;99.90
20102;DHT22;10210;52.284;9.892;2022-09-09T05:26:04;18.50;99.90
20102;DHT22;10210;52.284;9.892;2022-09-09T05:28:30;18.50;99.90
20102;DHT22;10210;52.284;9.892;2022-09-09T05:31:05;18.40;99.90
20102;DHT22;10210;52.284;9.892;2022-09-09T05:33:34;18.40;99.90
20102;DHT22;10210;52.284;9.892;2022-09-09T05:36:06;18.40;99.90
20102;DHT22;10210;52.284;9.892;2022-09-09T05:38:34;18.30;99.90
20102;DHT22;10210;52.284;9.892;2022-09-09T05:41:02;18.30;99.90
20102;DHT22;10210;52.284;9.892;2022-09-09T05:43:28;18.30;99.90
20102;DHT22;10210;52.284;9.892;2022-09-09T05:46:03;18.30;99.90
20102;DHT22;10210;52.284;9.892;2022-09-09T05:48:38;18.30;99.90
20102;DHT22;10210;52.284;9.892;2022-09-09T05:51:07;18.30;99.90
20102;DHT22;10210;52.284;9.892;2022-09-09T05:53:35;18.30;99.90
20102;DHT22;10210;52.284;9.892;2022-09-09T05:56:09;18.30;99.90
20102;DHT22;10210;52.284;9.892;2022-09-09T05:58:47;18.30;99.90
20102;DHT22;10210;52.284;9.892;2022-09-09T06:01:17;18.30;99.90
20102;DHT22;10210;52.284;9.892;2022-09-09T06:03:46;18.30;99.90
20102;DHT22;10210;52.284;9.892;2022-09-09T06:06:18;18.40;99.90
20102;DHT22;10210;52.284;9.892;2022-09-09T06:08:54;18.40;99.90
20102;DHT22;10210;52.284;9.892;2022-09-09T06:11:28;18.40;99.90
20102;DHT22;10210;52.284;9.892;2022-09-09T06:13:56;18.40;99.90
20102;DHT22;10210;52.284;9.892;2022-09-09T06:16:24;18.50;99.90
20102;DHT22;10210;52.284;9.892;2022-09-09T06:18:52;18.50;99.90
20102;DHT22;10210;52.284;9.892;2022-09-09T06:21:24;18.50;99.90
20102;DHT22;10210;52.284;9.892;2022-09-09T06:23:52;18.60;99.90
20102;DHT22;10210;52.284;9.892;2022-09-09T06:26:21;18.60;99.90
20102;DHT22;10210;52.284;9.892;2022-09-09T06:28:57;18.60;99.90
20102;DHT22;10210;52.284;9.892;2022-09-09T06:31:26;18.70;99.90
20102;DHT22;10210;52.284;9.892;2022-09-09T06:33:55;18.70;99.90
20102;DHT22;10210;52.284;9.892;2022-09-09T06:36:30;18.80;99.90
20102;DHT22;10210;52.284;9.892;2022-09-09T06:38:58;18.80;99.90
20102;DHT22;10210;52.284;9.892;2022-09-09T06:41:27;18.90;99.90
20102;DHT22;10210;52.284;9.892;2022-09-09T06:43:54;19.00;99.90
20102;DHT22;10210;52.284;9.892;2022-09-09T06:46:26;19.10;99.90
20102;DHT22;10210;52.284;9.892;2022-09-09T06:48:53;19.10;99.90
20102;DHT22;10210;52.284;9.892;2022-09-09T06:51:27;19.20;99.90
20102;DHT22;10210;52.284;9.892;2022-09-09T06:53:56;19.20;99.90
20102;DHT22;10210;52.284;9.892;2022-09-09T06:56:37;19.30;99.90
20102;DHT22;10210;52.284;9.892;2022-09-09T06:59:07;19.40;99.90
20102;DHT22;10210;52.284;9.892;2022-09-09T07:01:42;19.50;99.90
20102;DHT22;10210;52.284;9.892;2022-09-09T07:04:16;19.60;99.90
20102;DHT22;10210;52.284;9.892;2022-09-09T07:06:44;19.70;99.90
20102;DHT22;10210;52.284;9.892;2022-09-09T07:09:12;19.70;99.90
20102;DHT22;10210;52.284;9.892;2022-09-09T07:11:45;19.80;99.90
20102;DHT22;10210;52.284;9.892;2022-09-09T07:14:14;19.80;99.90
20102;DHT22;10210;52.284;9.892;2022-09-09T07:16:44;19.90;99.90
20102;DHT22;10210;52.284;9.892;2022-09-09T07:19:11;20.00;99.90
20102;DHT22;10210;52.284;9.892;2022-09-09T07:21:38;20.00;99.90
20102;DHT22;10210;52.284;9.892;2022-09-09T07:24:06;20.10;99.90
20102;DHT22;10210;52.284;9.892;2022-09-09T07:26:35;20.10;99.90
20102;DHT22;10210;52.284;9.892;2022-09-09T07:29:02;20.20;99.90
20102;DHT22;10210;52.284;9.892;2022-09-09T07:31:33;20.20;99.90
20102;DHT22;10210;52.284;9.892;2022-09-09T07:34:02;20.30;99.90
20102;DHT22;10210;52.284;9.892;2022-09-09T07:36:34;20.40;99.90
20102;DHT22;10210;52.284;9.892;2022-09-09T07:39:05;20.40;99.90
20102;DHT22;10210;52.284;9.892;2022-09-09T07:41:42;20.60;99.90
20102;DHT22;10210;52.284;9.892;2022-09-09T07:44:16;20.80;99.90
20102;DHT22;10210;52.284;9.892;2022-09-09T07:46:44;21.20;99.90
20102;DHT22;10210;52.284;9.892;2022-09-09T07:49:11;21.50;99.90
20102;DHT22;10210;52.284;9.892;2022-09-09T07:51:45;22.00;99.90
20102;DHT22;10210;52.284;9.892;2022-09-09T07:54:15;22.50;99.90
20102;DHT22;10210;52.284;9.892;2022-09-09T07:56:45;23.00;99.90
20102;DHT22;10210;52.284;9.892;2022-09-09T07:59:12;23.40;99.90
20102;DHT22;10210;52.284;9.892;2022-09-09T08:01:46;23.80;99.90
20102;DHT22;10210;52.284;9.892;2022-09-09T08:04:22;24.20;99.90
20102;DHT22;10210;52.284;9.892;2022-09-09T08:06:52;24.50;99.90
20102;DHT22;10210;52.284;9.892;2022-09-09T08:09:20;24.70;99.90
20102;DHT22;10210;52.284;9.892;2022-09-09T08:11:46;25.00;99.90
20102;DHT22;10210;52.284;9.892;2022-09-09T08:14:13;25.10;99.90
20102;DHT22;10210;52.284;9.892;2022-09-09T08:16:42;25.20;99.90
20102;DHT22;10210;52.284;9.892;2022-09-09T08:19:09;25.40;99.90
20102;DHT22;10210;52.284;9.892;2022-09-09T08:21:37;25.50;99.90
20102;DHT22;10210;52.284;9.892;2022-09-09T08:24:06;25.60;99.90
20102;DHT22;10210;52.284;9.892;2022-09-09T08:26:38;25.70;99.90
20102;DHT22;10210;52.284;9.892;2022-09-09T08:29:07;25.70;99.90
20102;DHT22;10210;52.284;9.892;2022-09-09T08:31:42;25.60;99.90
20102;DHT22;10210;52.284;9.892;2022-09-09T08:34:10;25.40;99.90
20102;DHT22;10210;52.284;9.892;2022-09-09T08:36:44;25.20;99.90
20102;DHT22;10210;52.284;9.892;2022-09-09T08:39:12;25.00;99.90
20102;DHT22;10210;52.284;9.892;2022-09-09T08:47:24;24.80;99.90
20102;DHT22;10210;52.284;9.892;2022-09-09T08:50:25;25.00;99.90
20102;DHT22;10210;52.284;9.892;2022-09-09T08:53:12;25.20;99.90
20102;DHT22;10210;52.284;9.892;2022-09-09T08:56:04;25.40;99.90
20102;DHT22;10210;52.284;9.892;2022-09-09T08:58:45;25.70;99.90
20102;DHT22;10210;52.284;9.892;2022-09-09T09:01:43;25.90;99.90
20102;DHT22;10210;52.284;9.892;2022-09-09T09:04:21;26.00;99.90
20102;DHT22;10210;52.284;9.892;2022-09-09T09:07:21;26.00;99.90
20102;DHT22;10210;52.284;9.892;2022-09-09T09:13:11;25.90;99.90
20102;DHT22;10210;52.284;9.892;2022-09-09T09:15:46;25.80;99.90
20102;DHT22;10210;52.284;9.892;2022-09-09T09:18:16;25.90;99.90
20102;DHT22;10210;52.284;9.892;2022-09-09T09:20:50;25.90;99.90
20102;DHT22;10210;52.284;9.892;2022-09-09T09:23:23;25.90;99.90
20102;DHT22;10210;52.284;9.892;2022-09-09T09:25:55;25.90;99.90
20102;DHT22;10210;52.284;9.892;2022-09-09T09:28:29;25.80;99.90
20102;DHT22;10210;52.284;9.892;2022-09-09T09:31:06;25.70;99.90
20102;DHT22;10210;52.284;9.892;2022-09-09T09:36:09;25.40;99.90
20102;DHT22;10210;52.284;9.892;2022-09-09T09:38:36;25.20;99.90
20102;DHT22;10210;52.284;9.892;2022-09-09T09:41:03;25.00;99.90
20102;DHT22;10210;52.284;9.892;2022-09-09T09:43:36;24.90;99.90
20102;DHT22;10210;52.284;9.892;2022-09-09T09:46:16;24.70;99.90
20102;DHT22;10210;52.284;9.892;2022-09-09T09:48:45;24.60;99.90
20102;DHT22;10210;52.284;9.892;2022-09-09T09:51:22;24.50;99.90
20102;DHT22;10210;52.284;9.892;2022-09-09T09:53:49;24.40;99.90
20102;DHT22;10210;52.284;9.892;2022-09-09T09:56:26;24.30;99.90
20102;DHT22;10210;52.284;9.892;2022-09-09T09:58:56;24.30;99.90
20102;DHT22;10210;52.284;9.892;2022-09-09T10:01:31;24.20;99.90
20102;DHT22;10210;52.284;9.892;2022-09-09T10:04:02;24.10;99.90
20102;DHT22;10210;52.284;9.892;2022-09-09T10:06:40;24.10;99.90
20102;DHT22;10210;52.284;9.892;2022-09-09T10:09:25;24.10;99.90
20102;DHT22;10210;52.284;9.892;2022-09-09T10:12:06;24.20;99.90
20102;DHT22;10210;52.284;9.892;2022-09-09T10:21:12;24.50;99.90
20102;DHT22;10210;52.284;9.892;2022-09-09T10:24:22;24.50;99.90
20102;DHT22;10210;52.284;9.892;2022-09-09T10:35:37;24.80;99.90
20102;DHT22;10210;52.284;9.892;2022-09-09T10:38:16;24.90;99.90
20102;DHT22;10210;52.284;9.892;2022-09-09T10:40:47;24.90;99.90
20102;DHT22;10210;52.284;9.892;2022-09-09T10:55:07;24.50;99.90
20102;DHT22;10210;52.284;9.892;2022-09-09T10:57:48;24.40;99.90
20102;DHT22;10210;52.284;9.892;2022-09-09T11:00:20;24.30;99.90
20102;DHT22;10210;52.284;9.892;2022-09-09T11:02:56;24.20;99.90
20102;DHT22;10210;52.284;9.892;2022-09-09T11:05:42;24.10;99.90
20102;DHT22;10210;52.284;9.892;2022-09-09T11:08:13;24.00;99.90
20102;DHT22;10210;52.284;9.892;2022-09-09T11:16:47;24.10;99.90
20102;DHT22;10210;52.284;9.892;2022-09-09T11:19:39;24.10;99.90
20102;DHT22;10210;52.284;9.892;2022-09-09T11:22:08;24.10;99.90
20102;DHT22;10210;52.284;9.892;2022-09-09T11:24:54;24.20;99.90
20102;DHT22;10210;52.284;9.892;2022-09-09T11:30:20;24.20;99.90
20102;DHT22;10210;52.284;9.892;2022-09-09T11:33:04;24.10;99.90
20102;DHT22;10210;52.284;9.892;2022-09-09T11:36:12;24.10;99.90
20102;DHT22;10210;52.284;9.892;2022-09-09T11:39:06;24.00;99.90
20102;DHT22;10210;52.284;9.892;2022-09-09T11:41:53;23.90;99.90
20102;DHT22;10210;52.284;9.892;2022-09-09T11:44:33;23.70;99.90
20102;DHT22;10210;52.284;9.892;2022-09-09T11:46:59;23.60;99.90
20102;DHT22;10210;52.284;9.892;2022-09-09T11:49:28;23.40;99.90
20102;DHT22;10210;52.284;9.892;2022-09-09T11:52:19;23.30;99.90
20102;DHT22;10210;52.284;9.892;2022-09-09T11:54:53;23.10;99.90
20102;DHT22;10210;52.284;9.892;2022-09-09T11:57:32;22.90;99.90
20102;DHT22;10210;52.284;9.892;2022-09-09T12:00:01;22.80;99.90
20102;DHT22;10210;52.284;9.892;2022-09-09T12:02:29;22.70;99.90
20102;DHT22;10210;52.284;9.892;2022-09-09T12:05:06;22.60;99.90
20102;DHT22;10210;52.284;9.892;2022-09-09T12:07:51;22.40;99.90
20102;DHT22;10210;52.284;9.892;2022-09-09T12:10:30;22.40;99.90
20102;DHT22;10210;52.284;9.892;2022-09-09T12:13:18;22.30;99.90
20102;DHT22;10210;52.284;9.892;2022-09-09T12:15:50;22.30;99.90
20102;DHT22;10210;52.284;9.892;2022-09-09T12:21:44;22.20;99.90
20102;DHT22;10210;52.284;9.892;2022-09-09T12:27:25;22.30;99.90
20102;DHT22;10210;52.284;9.892;2022-09-09T12:30:09;22.40;99.90
20102;DHT22;10210;52.284;9.892;2022-09-09T12:32:36;22.40;99.90
20102;DHT22;10210;52.284;9.892;2022-09-09T12:35:21;22.50;99.90
20102;DHT22;10210;52.284;9.892;2022-09-09T12:37:56;22.50;99.90
20102;DHT22;10210;52.284;9.892;2022-09-09T12:40:32;22.60;99.90
20102;DHT22;10210;52.284;9.892;2022-09-09T12:43:01;22.70;99.90
20102;DHT22;10210;52.284;9.892;2022-09-09T12:45:42;22.70;99.90
20102;DHT22;10210;52.284;9.892;2022-09-09T12:48:09;22.80;99.90
20102;DHT22;10210;52.284;9.892;2022-09-09T12:50:43;22.90;99.90
20102;DHT22;10210;52.284;9.892;2022-09-09T12:53:24;22.90;99.90
20102;DHT22;10210;52.284;9.892;2022-09-09T12:56:03;22.90;99.90
20102;DHT22;10210;52.284;9.892;2022-09-09T12:58:32;23.00;99.90
20102;DHT22;10210;52.284;9.892;2022-09-09T13:01:00;23.00;99.90
20102;DHT22;10210;52.284;9.892;2022-09-09T13:03:30;23.00;99.90
20102;DHT22;10210;52.284;9.892;2022-09-09T13:06:09;23.00;99.90
20102;DHT22;10210;52.284;9.892;2022-09-09T13:08:37;23.10;99.90
20102;DHT22;10210;52.284;9.892;2022-09-09T13:11:08;23.10;99.90
20102;DHT22;10210;52.284;9.892;2022-09-09T13:13:40;23.10;99.90
20102;DHT22;10210;52.284;9.892;2022-09-09T13:16:20;23.10;99.90
20102;DHT22;10210;52.284;9.892;2022-09-09T13:18:52;23.10;99.90
20102;DHT22;10210;52.284;9.892;2022-09-09T13:21:18;23.10;99.90
20102;DHT22;10210;52.284;9.892;2022-09-09T13:23:49;23.10;99.90
20102;DHT22;10210;52.284;9.892;2022-09-09T13:26:25;23.10;99.90
20102;DHT22;10210;52.284;9.892;2022-09-09T13:28:53;23.10;99.90
20102;DHT22;10210;52.284;9.892;2022-09-09T13:31:28;23.10;99.90
20102;DHT22;10210;52.284;9.892;2022-09-09T13:33:55;23.10;99.90
20102;DHT22;10210;52.284;9.892;2022-09-09T13:36:33;23.20;99.90
20102;DHT22;10210;52.284;9.892;2022-09-09T13:39:02;23.20;99.90
20102;DHT22;10210;52.284;9.892;2022-09-09T13:41:42;23.20;99.90
20102;DHT22;10210;52.284;9.892;2022-09-09T13:44:39;23.20;99.90
20102;DHT22;10210;52.284;9.892;2022-09-09T13:47:18;23.20;99.90
20102;DHT22;10210;52.284;9.892;2022-09-09T13:49:46;23.30;99.90
20102;DHT22;10210;52.284;9.892;2022-09-09T13:52:14;23.30;99.90
20102;DHT22;10210;52.284;9.892;2022-09-09T13:54:43;23.40;99.90
20102;DHT22;10210;52.284;9.892;2022-09-09T13:57:21;23.50;99.90
20102;DHT22;10210;52.284;9.892;2022-09-09T13:59:49;23.60;99.90
20102;DHT22;10210;52.284;9.892;2022-09-09T14:02:15;23.60;99.90
20102;DHT22;10210;52.284;9.892;2022-09-09T14:04:44;23.80;99.90
20102;DHT22;10210;52.284;9.892;2022-09-09T14:07:15;23.90;99.90
20102;DHT22;10210;52.284;9.892;2022-09-09T14:09:43;24.00;99.90
20102;DHT22;10210;52.284;9.892;2022-09-09T14:12:11;24.10;99.90
20102;DHT22;10210;52.284;9.892;2022-09-09T14:14:37;24.30;99.90
20102;DHT22;10210;52.284;9.892;2022-09-09T14:17:03;24.40;99.90
20102;DHT22;10210;52.284;9.892;2022-09-09T14:19:30;24.40;99.90
20102;DHT22;10210;52.284;9.892;2022-09-09T14:21:57;24.60;99.90
20102;DHT22;10210;52.284;9.892;2022-09-09T14:24:23;24.60;99.90
20102;DHT22;10210;52.284;9.892;2022-09-09T14:26:48;24.80;99.90
20102;DHT22;10210;52.284;9.892;2022-09-09T14:29:14;24.90;99.90
20102;DHT22;10210;52.284;9.892;2022-09-09T14:31:40;24.90;99.90
20102;DHT22;10210;52.284;9.892;2022-09-09T14:34:06;25.00;99.90
20102;DHT22;10210;52.284;9.892;2022-09-09T14:36:32;25.00;99.90
20102;DHT22;10210;52.284;9.892;2022-09-09T14:38:58;25.10;99.90
20102;DHT22;10210;52.284;9.892;2022-09-09T14:41:24;25.20;99.90
20102;DHT22;10210;52.284;9.892;2022-09-09T14:43:50;25.30;99.90
20102;DHT22;10210;52.284;9.892;2022-09-09T14:46:18;25.40;99.90
20102;DHT22;10210;52.284;9.892;2022-09-09T14:48:45;25.40;99.90
20102;DHT22;10210;52.284;9.892;2022-09-09T14:51:24;25.50;99.90
20102;DHT22;10210;52.284;9.892;2022-09-09T14:53:52;25.50;99.90
20102;DHT22;10210;52.284;9.892;2022-09-09T14:56:20;25.50;99.90
20102;DHT22;10210;52.284;9.892;2022-09-09T14:58:48;25.60;99.90
20102;DHT22;10210;52.284;9.892;2022-09-09T15:01:18;25.60;99.90
20102;DHT22;10210;52.284;9.892;2022-09-09T15:03:53;25.60;99.90
20102;DHT22;10210;52.284;9.892;2022-09-09T15:06:21;25.60;99.90
20102;DHT22;10210;52.284;9.892;2022-09-09T15:08:50;25.60;99.90
20102;DHT22;10210;52.284;9.892;2022-09-09T15:11:17;25.60;99.90
20102;DHT22;10210;52.284;9.892;2022-09-09T15:13:44;25.60;99.90
20102;DHT22;10210;52.284;9.892;2022-09-09T15:16:11;25.60;99.90
20102;DHT22;10210;52.284;9.892;2022-09-09T15:18:38;25.60;99.90
20102;DHT22;10210;52.284;9.892;2022-09-09T15:21:09;25.70;99.90
20102;DHT22;10210;52.284;9.892;2022-09-09T15:23:36;25.70;99.90
20102;DHT22;10210;52.284;9.892;2022-09-09T15:26:03;25.70;99.90
20102;DHT22;10210;52.284;9.892;2022-09-09T15:28:32;25.70;99.90
20102;DHT22;10210;52.284;9.892;2022-09-09T15:31:05;25.70;99.90
20102;DHT22;10210;52.284;9.892;2022-09-09T15:33:34;25.80;99.90
20102;DHT22;10210;52.284;9.892;2022-09-09T15:36:16;25.70;99.90
20102;DHT22;10210;52.284;9.892;2022-09-09T15:38:44;25.70;99.90
20102;DHT22;10210;52.284;9.892;2022-09-09T15:41:11;25.70;99.90
20102;DHT22;10210;52.284;9.892;2022-09-09T15:43:38;25.70;99.90
20102;DHT22;10210;52.284;9.892;2022-09-09T15:48:45;25.70;99.90
20102;DHT22;10210;52.284;9.892;2022-09-09T15:51:11;25.60;99.90
20102;DHT22;10210;52.284;9.892;2022-09-09T15:53:37;25.60;99.90
20102;DHT22;10210;52.284;9.892;2022-09-09T15:56:05;25.40;99.90
20102;DHT22;10210;52.284;9.892;2022-09-09T15:58:33;25.40;99.90
20102;DHT22;10210;52.284;9.892;2022-09-09T16:01:08;25.40;99.90
20102;DHT22;10210;52.284;9.892;2022-09-09T16:03:41;25.40;99.90
20102;DHT22;10210;52.284;9.892;2022-09-09T16:06:08;25.40;99.90
20102;DHT22;10210;52.284;9.892;2022-09-09T16:08:41;25.30;99.90
20102;DHT22;10210;52.284;9.892;2022-09-09T16:11:17;25.30;99.90
20102;DHT22;10210;52.284;9.892;2022-09-09T16:13:46;25.30;99.90
20102;DHT22;10210;52.284;9.892;2022-09-09T16:16:15;25.30;99.90
20102;DHT22;10210;52.284;9.892;2022-09-09T16:18:44;25.30;99.90
20102;DHT22;10210;52.284;9.892;2022-09-09T16:21:15;25.30;99.90
20102;DHT22;10210;52.284;9.892;2022-09-09T16:23:46;25.30;99.90
20102;DHT22;10210;52.284;9.892;2022-09-09T16:26:15;25.30;99.90
20102;DHT22;10210;52.284;9.892;2022-09-09T16:28:42;25.30;99.90
20102;DHT22;10210;52.284;9.892;2022-09-09T16:31:09;25.30;99.90
20102;DHT22;10210;52.284;9.892;2022-09-09T16:33:39;25.20;99.90
20102;DHT22;10210;52.284;9.892;2022-09-09T16:36:07;25.20;99.90
20102;DHT22;10210;52.284;9.892;2022-09-09T16:38:35;25.20;99.90
20102;DHT22;10210;52.284;9.892;2022-09-09T16:41:03;25.20;99.90
20102;DHT22;10210;52.284;9.892;2022-09-09T16:43:32;25.10;99.90
20102;DHT22;10210;52.284;9.892;2022-09-09T16:45:59;25.10;99.90
20102;DHT22;10210;52.284;9.892;2022-09-09T16:48:32;25.10;99.90
20102;DHT22;10210;52.284;9.892;2022-09-09T16:51:07;25.00;99.90
20102;DHT22;10210;52.284;9.892;2022-09-09T16:53:37;25.00;99.90
20102;DHT22;10210;52.284;9.892;2022-09-09T16:56:14;24.90;99.90
20102;DHT22;10210;52.284;9.892;2022-09-09T16:58:52;24.90;99.90
20102;DHT22;10210;52.284;9.892;2022-09-09T17:01:26;24.80;99.90
20102;DHT22;10210;52.284;9.892;2022-09-09T17:03:58;24.70;99.90
20102;DHT22;10210;52.284;9.892;2022-09-09T17:06:29;24.70;99.90
20102;DHT22;10210;52.284;9.892;2022-09-09T17:09:01;24.60;99.90
20102;DHT22;10210;52.284;9.892;2022-09-09T17:11:28;24.60;99.90
20102;DHT22;10210;52.284;9.892;2022-09-09T17:13:56;24.50;99.90
20102;DHT22;10210;52.284;9.892;2022-09-09T17:16:24;24.40;99.90
20102;DHT22;10210;52.284;9.892;2022-09-09T17:18:53;24.40;99.90
20102;DHT22;10210;52.284;9.892;2022-09-09T17:21:24;24.30;99.90
20102;DHT22;10210;52.284;9.892;2022-09-09T17:23:51;24.30;99.90
20102;DHT22;10210;52.284;9.892;2022-09-09T17:26:19;24.20;99.90
20102;DHT22;10210;52.284;9.892;2022-09-09T17:28:46;24.10;99.90
20102;DHT22;10210;52.284;9.892;2022-09-09T17:31:14;24.10;99.90
20102;DHT22;10210;52.284;9.892;2022-09-09T17:33:43;24.10;99.90